createdAt,value
2022-07-31T00:02:41.015Z,17.30
2022-07-31T00:06:56.374Z,17.20
2022-07-31T00:11:11.686Z,17.20
2022-07-31T00:15:25.999Z,17.20
2022-07-31T00:19:41.593Z,17.20
2022-07-31T00:23:58.333Z,17.10
2022-07-31T00:28:12.424Z,17.10
2022-07-31T00:32:26.128Z,17.10
2022-07-31T00:36:40.158Z,17.10
2022-07-31T00:40:56.747Z,17.00
2022-07-31T00:45:13.698Z,17.00
2022-07-31T00:49:37.278Z,17.00
2022-07-31T00:53:51.806Z,17.00
2022-07-31T00:58:07.235Z,17.00
2022-07-31T01:02:21.178Z,16.90
2022-07-31T01:06:37.591Z,16.90
2022-07-31T01:10:58.971Z,16.80
2022-07-31T01:15:16.367Z,16.80
2022-07-31T01:19:39.767Z,16.80
2022-07-31T01:24:30.455Z,16.70
2022-07-31T01:29:07.512Z,16.70
2022-07-31T01:33:29.851Z,16.70
2022-07-31T01:37:48.772Z,16.60
2022-07-31T01:42:06.174Z,16.60
2022-07-31T01:46:22.435Z,16.60
2022-07-31T01:50:42.315Z,16.60
2022-07-31T01:55:00.855Z,16.60
2022-07-31T01:59:22.484Z,16.50
2022-07-31T02:04:11.236Z,16.50
2022-07-31T02:08:26.672Z,16.50
2022-07-31T02:12:42.792Z,16.50
2022-07-31T02:16:57.455Z,16.50
2022-07-31T02:21:27.313Z,16.50
2022-07-31T02:25:42.205Z,16.50
2022-07-31T02:29:58.660Z,16.50
2022-07-31T02:34:14.722Z,16.40
2022-07-31T02:38:30.113Z,16.40
2022-07-31T02:42:44.503Z,16.40
2022-07-31T02:46:59.562Z,16.40
2022-07-31T02:51:13.826Z,16.40
2022-07-31T02:55:30.302Z,16.30
2022-07-31T02:59:45.067Z,16.30
2022-07-31T03:03:59.406Z,16.30
2022-07-31T03:08:15.377Z,16.30
2022-07-31T03:12:34.146Z,16.30
2022-07-31T03:16:49.494Z,16.30
2022-07-31T03:21:03.347Z,16.30
2022-07-31T03:25:21.660Z,16.20
2022-07-31T03:29:43.202Z,16.20
2022-07-31T03:33:58.113Z,16.20
2022-07-31T03:38:41.125Z,16.10
2022-07-31T03:42:51.205Z,16.10
2022-07-31T03:47:08.294Z,16.10
2022-07-31T03:51:22.358Z,16.20
2022-07-31T03:55:38.860Z,16.30
2022-07-31T03:59:56.319Z,16.60
2022-07-31T04:04:13.534Z,16.90
2022-07-31T04:08:42.540Z,17.30
2022-07-31T04:12:56.506Z,17.90
2022-07-31T04:17:11.323Z,18.40
2022-07-31T04:21:26.480Z,19.00
2022-07-31T04:25:40.301Z,19.60
2022-07-31T04:30:12.631Z,20.10
2022-07-31T04:34:27.050Z,20.80
2022-07-31T04:38:42.698Z,21.50
2022-07-31T04:42:57.978Z,22.20
2022-07-31T04:47:12.096Z,22.90
2022-07-31T04:51:29.756Z,23.50
2022-07-31T04:56:05.466Z,24.10
2022-07-31T05:00:19.470Z,24.80
2022-07-31T05:04:33.578Z,25.50
2022-07-31T05:08:47.483Z,26.10
2022-07-31T05:13:02.816Z,26.70
2022-07-31T05:17:18.329Z,27.30
2022-07-31T05:22:03.796Z,27.90
2022-07-31T05:26:27.736Z,28.40
2022-07-31T05:30:43.123Z,28.80
2022-07-31T05:34:57.239Z,29.20
2022-07-31T05:39:12.305Z,29.60
2022-07-31T05:43:25.972Z,29.90
2022-07-31T05:47:51.883Z,30.20
2022-07-31T05:52:06.730Z,30.40
2022-07-31T05:56:20.621Z,30.70
2022-07-31T06:00:37.613Z,31.00
2022-07-31T06:04:53.103Z,31.40
2022-07-31T06:09:06.884Z,31.90
2022-07-31T06:13:30.169Z,32.30
2022-07-31T06:17:48.844Z,32.60
2022-07-31T06:22:12.287Z,32.90
2022-07-31T06:26:27.592Z,33.20
2022-07-31T06:30:41.853Z,33.70
2022-07-31T06:34:55.948Z,34.00
2022-07-31T06:39:11.938Z,34.30
2022-07-31T06:43:46.116Z,34.00
2022-07-31T06:48:25.731Z,33.40
2022-07-31T06:52:49.991Z,32.80
2022-07-31T06:57:05.399Z,32.40
2022-07-31T07:01:19.338Z,31.80
2022-07-31T07:05:33.284Z,31.40
2022-07-31T07:09:48.632Z,31.20
2022-07-31T07:14:17.298Z,31.20
2022-07-31T07:18:31.172Z,31.60
2022-07-31T07:22:47.891Z,32.30
2022-07-31T07:27:14.571Z,33.00
2022-07-31T07:31:29.843Z,34.30
2022-07-31T07:35:44.760Z,35.70
2022-07-31T07:40:04.502Z,36.70
2022-07-31T07:44:18.399Z,37.40
2022-07-31T07:48:33.554Z,37.40
2022-07-31T07:53:05.250Z,37.20
2022-07-31T07:57:40.459Z,37.60
2022-07-31T08:02:13.655Z,38.00
2022-07-31T08:06:29.028Z,38.00
2022-07-31T08:10:43.261Z,38.20
2022-07-31T08:15:10.918Z,38.40
2022-07-31T08:19:39.961Z,38.60
2022-07-31T08:23:55.620Z,38.80
2022-07-31T08:28:13.797Z,39.20
2022-07-31T08:32:33.617Z,39.60
2022-07-31T08:37:50.797Z,39.40
2022-07-31T08:41:54.544Z,38.90
2022-07-31T08:46:10.620Z,38.50
2022-07-31T08:50:27.861Z,38.60
2022-07-31T08:54:46.039Z,38.60
2022-07-31T08:59:01.867Z,39.00
2022-07-31T09:03:16.559Z,39.30
2022-07-31T09:07:32.889Z,39.70
2022-07-31T09:11:49.939Z,40.30
2022-07-31T09:16:30.889Z,40.70
2022-07-31T09:20:56.097Z,41.20
2022-07-31T09:25:16.058Z,41.30
2022-07-31T09:29:38.859Z,41.30
2022-07-31T09:33:56.400Z,41.30
2022-07-31T09:38:13.174Z,41.40
2022-07-31T09:42:55.303Z,41.50
2022-07-31T09:47:23.064Z,41.90
2022-07-31T09:51:41.134Z,42.00
2022-07-31T09:55:58.129Z,41.90
2022-07-31T10:00:17.185Z,41.90
2022-07-31T10:04:32.740Z,41.90
2022-07-31T10:08:50.522Z,41.90
2022-07-31T10:13:13.239Z,41.70
2022-07-31T10:17:36.193Z,41.00
2022-07-31T10:22:24.294Z,40.10
2022-07-31T10:26:59.752Z,39.60
2022-07-31T10:31:13.888Z,39.10
2022-07-31T10:35:30.217Z,39.10
2022-07-31T10:40:02.409Z,39.70
2022-07-31T10:44:28.849Z,40.30
2022-07-31T10:49:08.518Z,40.90
2022-07-31T10:53:51.412Z,41.30
2022-07-31T10:58:28.030Z,41.30
2022-07-31T11:03:16.207Z,41.50
2022-07-31T11:07:48.935Z,41.90
2022-07-31T11:12:22.654Z,42.10
2022-07-31T11:16:55.909Z,42.00
2022-07-31T11:21:39.907Z,42.00
2022-07-31T11:25:53.946Z,41.90
2022-07-31T11:30:13.528Z,41.60
2022-07-31T11:34:27.809Z,41.50
2022-07-31T11:38:46.813Z,41.20
2022-07-31T11:48:12.433Z,40.20
2022-07-31T11:52:30.673Z,40.00
2022-07-31T11:56:48.856Z,39.10
2022-07-31T12:01:05.555Z,38.00
2022-07-31T12:05:19.351Z,37.20
2022-07-31T12:10:00.879Z,36.00
2022-07-31T12:14:29.088Z,34.70
2022-07-31T12:18:51.497Z,33.40
2022-07-31T12:23:06.961Z,32.50
2022-07-31T12:27:42.076Z,31.90
2022-07-31T12:31:58.769Z,31.40
2022-07-31T12:36:16.649Z,31.00
2022-07-31T12:40:30.709Z,30.80
2022-07-31T12:44:49.331Z,30.60
2022-07-31T12:49:04.872Z,30.50
2022-07-31T12:53:18.677Z,30.30
2022-07-31T12:57:32.650Z,30.20
2022-07-31T13:01:46.535Z,30.10
2022-07-31T13:06:01.675Z,30.00
2022-07-31T13:10:23.801Z,29.80
2022-07-31T13:14:38.575Z,29.80
2022-07-31T13:31:31.690Z,29.50
2022-07-31T13:35:45.443Z,29.30
2022-07-31T13:39:59.267Z,29.20
2022-07-31T13:44:12.981Z,29.20
2022-07-31T13:48:28.195Z,29.10
2022-07-31T13:52:41.951Z,29.10
2022-07-31T13:56:56.271Z,29.10
2022-07-31T14:01:10.177Z,29.10
2022-07-31T14:05:26.463Z,29.20
2022-07-31T14:15:18.211Z,29.10
2022-07-31T14:19:40.519Z,29.00
2022-07-31T14:23:59.747Z,29.00
2022-07-31T14:28:13.469Z,29.20
2022-07-31T14:32:27.304Z,29.30
2022-07-31T14:36:42.275Z,29.30
2022-07-31T14:40:57.363Z,29.10
2022-07-31T14:45:11.981Z,29.00
2022-07-31T14:49:25.811Z,29.10
2022-07-31T14:53:59.672Z,29.00
2022-07-31T14:58:14.799Z,28.90
2022-07-31T15:02:28.648Z,28.80
2022-07-31T15:06:55.963Z,28.70
2022-07-31T15:11:16.146Z,28.70
2022-07-31T15:15:31.913Z,28.80
2022-07-31T15:19:48.075Z,29.00
2022-07-31T15:24:01.907Z,29.30
2022-07-31T15:28:15.616Z,29.70
2022-07-31T15:32:30.835Z,30.20
2022-07-31T15:36:44.486Z,30.50
2022-07-31T15:40:58.267Z,30.70
2022-07-31T15:45:13.383Z,30.50
2022-07-31T15:49:28.606Z,30.30
2022-07-31T15:53:56.985Z,30.20
2022-07-31T15:58:10.748Z,30.30
2022-07-31T16:02:25.280Z,30.40
2022-07-31T16:06:40.428Z,30.30
2022-07-31T16:10:55.079Z,30.20
2022-07-31T16:15:11.296Z,30.10
2022-07-31T16:19:25.211Z,29.90
2022-07-31T16:23:40.663Z,29.90
2022-07-31T16:27:54.941Z,29.90
2022-07-31T16:32:09.220Z,29.90
2022-07-31T16:36:23.111Z,29.90
2022-07-31T16:40:38.260Z,29.80
2022-07-31T16:44:54.447Z,29.60
2022-07-31T16:49:28.367Z,29.50
2022-07-31T16:54:14.562Z,29.30
2022-07-31T16:58:19.505Z,29.20
2022-07-31T17:02:38.754Z,28.90
2022-07-31T17:06:52.584Z,28.70
2022-07-31T17:11:06.941Z,28.50
2022-07-31T17:15:22.502Z,28.30
2022-07-31T17:19:45.850Z,28.20
2022-07-31T17:24:01.096Z,28.10
2022-07-31T17:28:17.725Z,28.10
2022-07-31T17:32:33.909Z,28.10
2022-07-31T17:36:50.264Z,28.00
2022-07-31T17:41:04.637Z,28.00
2022-07-31T17:45:20.483Z,27.90
2022-07-31T17:49:37.890Z,27.80
2022-07-31T17:53:55.299Z,27.80
2022-07-31T17:58:12.724Z,27.70
2022-07-31T18:02:26.565Z,27.70
2022-07-31T18:06:41.719Z,27.50
2022-07-31T18:10:55.419Z,27.40
2022-07-31T18:15:11.928Z,27.30
2022-07-31T18:19:25.714Z,27.30
2022-07-31T18:23:43.664Z,27.10
2022-07-31T18:28:01.310Z,27.10
2022-07-31T18:32:15.001Z,27.00
2022-07-31T18:36:28.745Z,27.00
2022-07-31T18:40:43.834Z,26.80
2022-07-31T18:44:58.296Z,26.70
2022-07-31T18:50:58.844Z,26.60
2022-07-31T18:53:46.447Z,26.60
2022-07-31T18:58:02.134Z,26.50
2022-07-31T19:02:20.606Z,26.40
2022-07-31T19:06:35.839Z,26.40
2022-07-31T19:10:53.242Z,26.30
2022-07-31T19:15:09.509Z,26.30
2022-07-31T19:19:23.191Z,26.20
2022-07-31T19:23:37.858Z,26.20
2022-07-31T19:27:52.027Z,26.10
2022-07-31T19:32:07.896Z,26.10
2022-07-31T19:36:21.884Z,26.00
2022-07-31T19:40:35.792Z,26.10
2022-07-31T19:44:49.574Z,26.00
2022-07-31T19:49:05.082Z,26.00
2022-07-31T19:53:18.915Z,25.90
2022-07-31T19:57:32.698Z,25.90
2022-07-31T20:01:46.894Z,25.80
2022-07-31T20:06:02.098Z,25.80
2022-07-31T20:10:15.972Z,25.70
2022-07-31T20:14:29.752Z,25.70
2022-07-31T20:18:43.792Z,25.70
2022-07-31T20:22:58.943Z,25.70
2022-07-31T20:27:12.802Z,25.60
2022-07-31T20:31:26.960Z,25.60
2022-07-31T20:35:48.435Z,25.50
2022-07-31T20:40:06.919Z,25.40
2022-07-31T20:44:21.009Z,25.30
2022-07-31T20:48:38.978Z,25.20
2022-07-31T20:52:52.723Z,25.10
2022-07-31T20:57:08.075Z,25.00
2022-07-31T21:01:22.963Z,24.90
2022-07-31T21:05:36.922Z,24.80
2022-07-31T21:09:50.751Z,24.80
2022-07-31T21:14:05.938Z,24.70
2022-07-31T21:18:20.963Z,24.60
2022-07-31T21:22:35.063Z,24.50
2022-07-31T21:26:51.847Z,24.50
2022-07-31T21:31:12.393Z,24.40
2022-07-31T21:35:36.981Z,24.40
2022-07-31T21:39:52.411Z,24.30
2022-07-31T21:44:06.638Z,24.30
2022-07-31T21:48:24.972Z,24.20
2022-07-31T21:52:39.197Z,24.20
2022-07-31T21:56:53.605Z,24.10
2022-07-31T22:01:10.558Z,24.10
2022-07-31T22:05:43.509Z,24.00
2022-07-31T22:09:57.890Z,23.90
2022-07-31T22:14:11.804Z,23.80
2022-07-31T22:18:26.811Z,23.80
2022-07-31T22:22:46.281Z,23.70
2022-07-31T22:27:18.771Z,23.70
2022-07-31T22:31:32.825Z,23.70
2022-07-31T22:35:59.456Z,23.70
2022-07-31T22:40:18.330Z,23.60
2022-07-31T22:44:33.505Z,23.60
2022-07-31T22:48:47.542Z,23.50
2022-07-31T22:53:01.621Z,23.40
2022-07-31T22:57:17.346Z,23.30
2022-07-31T23:01:34.027Z,23.20
2022-07-31T23:06:28.184Z,23.10
2022-07-31T23:10:21.752Z,23.00
2022-07-31T23:14:37.235Z,22.90
2022-07-31T23:18:51.253Z,22.80
2022-07-31T23:23:04.983Z,22.70
2022-07-31T23:27:18.809Z,22.70
2022-07-31T23:31:34.207Z,22.60
2022-07-31T23:35:48.108Z,22.50
2022-07-31T23:40:02.067Z,22.60
2022-07-31T23:44:18.623Z,22.60
2022-07-31T23:48:40.263Z,22.60
2022-07-31T23:52:54.262Z,22.60
2022-07-31T23:57:08.027Z,22.50
